Time;durP1;ratioP1;P1;durP2;ratioP2;P2;SDS_P1;SDS_P2;PMS_P1;PMS_P2;Temp;Humidity;BMP_temperature;BMP_pressure;BME280_temperature;BME280_humidity;BME280_pressure;Samples;Min_cycle;Max_cycle;Signal;HPM_P1;HPM_P2
2021/05/15 00:02:10;;;;;;;7.75;4.50;;;;;;;31.13;49.61;100742.41;5062269;28;65215;-33
2021/05/15 00:04:38;;;;;;;5.57;4.43;;;;;;;31.15;50.12;100734.88;5061365;28;70152;-33
2021/05/15 00:07:07;;;;;;;8.60;4.97;;;;;;;31.22;50.06;100736.69;5063328;28;65326;-33
2021/05/15 00:09:35;;;;;;;5.88;4.40;;;;;;;31.13;50.33;100723.44;5062697;28;70121;-34
2021/05/15 00:12:04;;;;;;;15.38;5.97;;;;;;;31.30;53.11;100733.66;5060975;27;66071;-41
2021/05/15 00:14:33;;;;;;;8.52;7.28;;;;;;;31.41;54.44;100735.66;5059261;27;69275;-42
2021/05/15 00:17:01;;;;;;;14.32;6.78;;;;;;;31.48;55.30;100725.56;5054800;28;64855;-40
2021/05/15 00:19:29;;;;;;;18.55;7.47;;;;;;;31.55;56.18;100731.72;5054564;28;70696;-42
2021/05/15 00:21:59;;;;;;;20.83;7.55;;;;;;;31.69;56.75;100745.91;5054209;28;66426;-41
2021/05/15 00:24:27;;;;;;;27.40;6.65;;;;;;;31.73;57.13;100741.72;5054209;28;70498;-39
2021/05/15 00:26:56;;;;;;;16.45;7.47;;;;;;;31.79;57.94;100742.69;5054435;28;67012;-40
2021/05/15 00:29:25;;;;;;;44.60;8.57;;;;;;;31.79;57.60;100737.25;5040004;28;70171;-41
2021/05/15 00:31:54;;;;;;;27.20;7.15;;;;;;;31.80;58.17;100744.31;5050332;28;66153;-39
2021/05/15 00:34:22;;;;;;;10.10;6.47;;;;;;;31.89;59.46;100748.34;5049596;28;69970;-40
2021/05/15 00:36:51;;;;;;;18.42;6.95;;;;;;;31.97;58.17;100756.19;5046196;28;66954;-38
2021/05/15 00:39:20;;;;;;;15.18;6.88;;;;;;;31.98;59.38;100754.31;5031430;28;69172;-39
2021/05/15 00:41:49;;;;;;;14.02;7.07;;;;;;;32.01;58.87;100756.56;5052665;28;65345;-39
2021/05/15 00:46:52;;;;;;;16.35;4.88;;;;;;;32.05;59.73;100764.00;5053660;27;65987;-39
2021/05/15 00:49:20;;;;;;;20.58;5.50;;;;;;;32.05;59.79;100766.72;5053075;28;70159;-40
2021/05/15 00:51:49;;;;;;;22.27;5.32;;;;;;;32.10;59.91;100766.03;5052225;28;65359;-42
2021/05/15 00:54:17;;;;;;;21.38;6.13;;;;;;;31.90;60.44;100722.03;5052492;28;70080;-39
2021/05/15 00:56:47;;;;;;;9.98;5.60;;;;;;;32.16;60.47;100756.16;5038953;28;65460;-40
2021/05/15 00:59:15;;;;;;;12.70;5.72;;;;;;;32.25;60.04;100762.88;5044199;28;70284;-39
2021/05/15 01:01:44;;;;;;;17.48;5.57;;;;;;;32.30;60.03;100771.16;5054769;28;66198;-39
2021/05/15 01:04:12;;;;;;;19.23;5.78;;;;;;;32.29;60.64;100764.09;5055744;28;69921;-40
2021/05/15 01:06:41;;;;;;;15.45;5.18;;;;;;;32.37;60.28;100771.88;5056295;28;66170;-39
2021/05/15 01:09:10;;;;;;;20.23;6.05;;;;;;;32.37;60.15;100771.03;5057418;28;69310;-41
2021/05/15 01:11:38;;;;;;;15.13;5.57;;;;;;;32.34;61.37;100777.78;5050007;28;66390;-38
2021/05/15 01:14:08;;;;;;;21.73;5.95;;;;;;;32.37;60.88;100776.47;5050233;28;70251;-40
2021/05/15 01:16:36;;;;;;;12.55;5.28;;;;;;;32.43;60.58;100776.38;5053291;28;66049;-40
2021/05/15 01:19:06;;;;;;;7.90;5.68;;;;;;;32.51;60.25;100782.56;5052976;28;70474;-39
2021/05/15 01:21:35;;;;;;;13.63;5.88;;;;;;;32.51;60.35;100771.69;5059020;28;66216;-41
2021/05/15 01:24:04;;;;;;;9.15;6.00;;;;;;;32.54;60.91;100771.22;5062154;28;69227;-42
2021/05/15 01:26:33;;;;;;;8.90;6.10;;;;;;;32.57;60.69;100785.19;5056205;27;65294;-39
2021/05/15 01:29:05;;;;;;;18.55;6.18;;;;;;;31.92;60.97;100677.38;5045388;28;70059;-40
2021/05/15 01:31:36;;;;;;;13.05;5.90;;;;;;;32.61;61.06;100801.81;5058918;28;65687;-40
2021/05/15 01:34:06;;;;;;;9.88;6.10;;;;;;;32.61;60.98;100793.69;5043908;28;69355;-39
2021/05/15 01:36:40;;;;;;;13.52;6.10;;;;;;;32.62;61.33;100792.59;5062230;28;65948;-40
2021/05/15 01:39:14;;;;;;;8.23;6.05;;;;;;;32.26;62.56;100737.38;5050970;28;69462;-40
2021/05/15 01:41:44;;;;;;;17.98;5.70;;;;;;;32.62;60.89;100792.59;5053940;28;65651;-40
2021/05/15 01:44:13;;;;;;;12.07;5.22;;;;;;;32.46;60.31;100797.66;5058085;28;70344;-43
2021/05/15 01:46:42;;;;;;;9.82;5.40;;;;;;;32.38;59.13;100792.53;5051081;28;66839;-38
2021/05/15 01:49:11;;;;;;;11.20;5.22;;;;;;;32.39;58.18;100815.91;5049041;28;70243;-40
2021/05/15 01:51:40;;;;;;;12.98;5.53;;;;;;;32.28;57.99;100806.66;5050496;28;65655;-38
2021/05/15 01:54:08;;;;;;;8.73;5.32;;;;;;;32.21;57.31;100810.56;5055051;28;69810;-38
2021/05/15 01:56:38;;;;;;;5.88;5.20;;;;;;;32.14;56.00;100804.38;5049117;28;66326;-40
2021/05/15 01:59:08;;;;;;;9.82;5.57;;;;;;;31.97;55.45;100799.59;5049427;28;69446;-42
2021/05/15 02:01:38;;;;;;;6.88;4.88;;;;;;;31.92;54.56;100799.47;5052125;28;66070;-40
2021/05/15 02:04:06;;;;;;;10.60;4.85;;;;;;;31.85;53.29;100789.75;5050874;28;70387;-41
2021/05/15 02:06:35;;;;;;;6.78;5.03;;;;;;;31.85;52.58;100800.59;5049463;28;65393;-43
2021/05/15 02:09:03;;;;;;;5.45;4.30;;;;;;;31.75;51.98;100795.69;5050872;28;69407;-44
2021/05/15 02:11:32;;;;;;;7.13;4.47;;;;;;;31.77;50.95;100809.88;5047950;28;65577;-44
2021/05/15 02:14:00;;;;;;;7.90;4.28;;;;;;;31.71;50.33;100789.91;5053363;28;69916;-43
2021/05/15 02:16:29;;;;;;;4.55;4.05;;;;;;;31.69;50.11;100802.03;5050343;28;65299;-45
2021/05/15 02:18:57;;;;;;;11.23;4.30;;;;;;;31.67;49.48;100806.84;5049295;27;70269;-42
2021/05/15 02:21:26;;;;;;;4.32;3.90;;;;;;;31.67;48.76;100793.31;5053091;28;67303;-42
2021/05/15 02:23:54;;;;;;;3.97;3.67;;;;;;;31.58;48.24;100790.91;5049650;28;70199;-41
2021/05/15 02:26:22;;;;;;;4.18;3.60;;;;;;;31.48;47.70;100773.50;5052903;28;65143;-43
2021/05/15 02:28:51;;;;;;;4.43;3.53;;;;;;;31.53;46.73;100788.03;5047650;28;69168;-43
2021/05/15 02:31:19;;;;;;;3.38;3.08;;;;;;;31.52;46.99;100791.81;5053641;28;65180;-41
2021/05/15 02:33:47;;;;;;;3.63;3.33;;;;;;;31.53;46.91;100798.88;5048269;28;69318;-43
2021/05/15 02:36:16;;;;;;;5.50;3.20;;;;;;;31.50;46.04;100796.63;5049714;28;66092;-42
2021/05/15 02:38:44;;;;;;;6.28;3.05;;;;;;;31.47;46.00;100786.25;5049801;28;69641;-42
2021/05/15 02:41:13;;;;;;;5.07;2.95;;;;;;;31.38;45.34;100776.75;5046671;28;65129;-44
2021/05/15 02:43:41;;;;;;;8.63;3.10;;;;;;;31.49;46.71;100789.56;5062242;27;70291;-42
2021/05/15 02:46:10;;;;;;;6.95;3.65;;;;;;;31.60;50.79;100777.94;5048725;28;65805;-41
2021/05/15 02:48:39;;;;;;;13.15;4.03;;;;;;;31.67;52.92;100777.03;5049540;28;69934;-41
2021/05/15 02:51:08;;;;;;;5.88;4.00;;;;;;;31.73;53.55;100779.69;5052494;28;65890;-41
2021/05/15 02:53:37;;;;;;;10.75;4.88;;;;;;;31.76;53.41;100775.66;5071141;28;68282;-42
2021/05/15 02:56:05;;;;;;;4.45;4.05;;;;;;;31.75;52.12;100784.84;5054161;28;65736;-41
2021/05/15 02:58:34;;;;;;;7.07;4.70;;;;;;;31.66;51.48;100761.81;5052656;28;70642;-41
2021/05/15 03:01:02;;;;;;;6.07;4.55;;;;;;;31.68;50.63;100779.53;5050297;28;66401;-41
2021/05/15 03:03:31;;;;;;;6.00;4.85;;;;;;;31.66;49.75;100778.91;5048806;28;70455;-42
2021/05/15 03:06:02;;;;;;;8.63;3.70;;;;;;;31.65;48.83;100774.56;5048216;28;66571;-40
2021/05/15 03:08:31;;;;;;;7.00;3.92;;;;;;;31.55;48.05;100756.09;5051659;28;70635;-41
2021/05/15 03:10:59;;;;;;;10.30;3.88;;;;;;;31.63;47.99;100760.41;5049397;28;65236;-42
2021/05/15 03:13:28;;;;;;;7.97;4.50;;;;;;;31.64;47.35;100766.66;5045139;28;70017;-41
2021/05/15 03:15:56;;;;;;;6.85;3.92;;;;;;;31.52;47.54;100751.16;5053929;28;66635;-41
2021/05/15 03:18:31;;;;;;;7.47;3.90;;;;;;;31.59;46.70;100760.03;5053496;28;69310;-40
2021/05/15 03:21:00;;;;;;;4.60;3.90;;;;;;;31.60;46.72;100761.69;5056785;28;65472;-40
2021/05/15 03:23:28;;;;;;;7.03;4.32;;;;;;;31.61;45.74;100760.63;5051217;28;70155;-41
2021/05/15 03:25:59;;;;;;;5.27;4.00;;;;;;;31.57;45.90;100756.72;5058750;28;66009;-41
2021/05/15 03:28:28;;;;;;;10.75;4.10;;;;;;;31.58;44.87;100742.09;5054516;28;69667;-41
2021/05/15 03:30:56;;;;;;;8.80;3.80;;;;;;;31.57;45.12;100745.88;5054885;28;66208;-42
2021/05/15 03:33:24;;;;;;;3.83;3.53;;;;;;;31.53;44.38;100744.66;5054327;28;69267;-41
2021/05/15 03:35:53;;;;;;;5.97;3.60;;;;;;;31.38;44.82;100717.94;5051250;28;65859;-41
2021/05/15 03:38:22;;;;;;;6.65;3.42;;;;;;;31.58;44.77;100744.81;5055738;28;69837;-40
2021/05/15 03:40:51;;;;;;;5.03;3.83;;;;;;;31.60;47.92;100734.56;5056868;28;64176;-40
2021/05/15 03:43:20;;;;;;;12.95;4.20;;;;;;;31.66;48.98;100738.25;5055119;28;71540;-40
2021/05/15 03:45:52;;;;;;;15.30;4.15;;;;;;;31.61;48.17;100725.38;5049012;28;64882;-42
2021/05/15 03:48:21;;;;;;;14.07;4.00;;;;;;;31.71;47.91;100734.84;5045797;28;69797;-40
2021/05/15 03:50:53;;;;;;;4.40;3.45;;;;;;;31.76;47.00;100738.53;5055212;28;65839;-42
2021/05/15 03:53:22;;;;;;;10.02;3.78;;;;;;;31.75;47.07;100736.03;5054223;28;70732;-40
2021/05/15 03:55:53;;;;;;;5.68;3.60;;;;;;;31.69;47.31;100726.13;5052645;28;66174;-42
2021/05/15 03:58:23;;;;;;;5.82;3.40;;;;;;;31.63;46.10;100727.03;5048029;28;69758;-42
2021/05/15 04:00:51;;;;;;;5.05;3.30;;;;;;;31.60;45.69;100715.59;5051343;28;65656;-40
2021/05/15 04:03:20;;;;;;;4.40;3.30;;;;;;;31.52;45.67;100701.53;5051660;28;68858;-41
2021/05/15 04:05:51;;;;;;;4.53;3.25;;;;;;;31.59;45.36;100713.94;5048716;28;65665;-41
2021/05/15 04:08:19;;;;;;;9.43;3.47;;;;;;;31.57;44.95;100716.03;5049113;28;70379;-40
2021/05/15 04:10:47;;;;;;;9.18;2.97;;;;;;;31.54;45.06;100705.66;5050983;28;65438;-39
2021/05/15 04:18:28;;;;;;;6.07;2.70;;;;;;;31.58;44.23;100704.13;5047971;28;70108;-39
2021/05/15 04:20:57;;;;;;;6.25;2.90;;;;;;;31.56;43.63;100706.25;5046674;28;65549;-41
2021/05/15 04:23:26;;;;;;;5.47;2.85;;;;;;;31.59;43.11;100703.09;5050904;28;69782;-40
2021/05/15 04:25:56;;;;;;;5.65;2.78;;;;;;;31.53;42.78;100695.84;5051014;28;65399;-43
2021/05/15 04:28:24;;;;;;;4.18;2.90;;;;;;;31.56;42.34;100698.09;5047659;28;69388;-43
2021/05/15 04:30:53;;;;;;;2.90;2.30;;;;;;;31.53;42.69;100687.72;5051224;28;66720;-41
2021/05/15 04:33:25;;;;;;;13.98;2.80;;;;;;;31.53;42.22;100671.47;5050517;28;69890;-41
2021/05/15 04:35:57;;;;;;;5.22;2.42;;;;;;;31.47;42.35;100664.25;5054214;28;64813;-42
2021/05/15 04:38:25;;;;;;;;;;;;;;;31.41;41.66;100662.47;5051628;28;70632;-41
2021/05/15 04:40:53;;;;;;;3.28;2.33;;;;;;;31.54;41.96;100665.00;5051849;28;65735;-40
2021/05/15 04:43:22;;;;;;;2.60;2.38;;;;;;;31.55;41.53;100665.81;5052656;28;68495;-42
2021/05/15 04:45:55;;;;;;;6.18;2.33;;;;;;;31.58;41.69;100668.06;5054315;28;65915;-44
2021/05/15 04:48:24;;;;;;;4.85;2.90;;;;;;;31.58;41.42;100674.31;5045128;28;70010;-40
2021/05/15 04:50:52;;;;;;;3.28;2.97;;;;;;;31.59;41.25;100667.00;5051157;28;66284;-40
2021/05/15 04:53:20;;;;;;;4.10;2.72;;;;;;;31.55;41.38;100672.06;5052627;27;69119;-42
2021/05/15 04:55:49;;;;;;;3.88;2.60;;;;;;;31.58;40.86;100663.47;5054419;27;65380;-43
2021/05/15 04:58:17;;;;;;;3.42;2.28;;;;;;;31.57;40.71;100653.69;5057849;28;69188;-40
2021/05/15 05:00:47;;;;;;;3.60;3.03;;;;;;;31.41;40.85;100613.66;5057524;28;66959;-41
2021/05/15 05:03:16;;;;;;;5.72;2.83;;;;;;;31.56;40.89;100635.75;5052302;28;70021;-40
2021/05/15 05:05:45;;;;;;;4.20;2.38;;;;;;;31.53;41.28;100651.66;5057836;28;65321;-40
2021/05/15 05:08:13;;;;;;;4.38;2.53;;;;;;;31.48;41.22;100656.94;5057752;28;69308;-42
2021/05/15 05:10:41;;;;;;;3.95;2.47;;;;;;;31.53;41.37;100678.78;5059418;28;66295;-41
2021/05/15 05:13:10;;;;;;;3.55;2.53;;;;;;;31.51;41.16;100668.16;5056860;28;67751;-42
2021/05/15 05:15:41;;;;;;;9.13;2.40;;;;;;;31.42;40.95;100647.84;5056445;28;66173;-41
2021/05/15 05:18:13;;;;;;;;;;;;;;;31.44;40.85;100632.19;5058022;28;69446;-41
2021/05/15 05:20:45;;;;;;;3.83;2.35;;;;;;;31.45;40.96;100628.41;5056370;28;65816;-43
2021/05/15 05:23:13;;;;;;;2.17;1.83;;;;;;;31.43;41.61;100627.00;5058791;28;69823;-41
2021/05/15 05:25:42;;;;;;;3.20;1.80;;;;;;;31.41;40.67;100631.81;5058057;28;65129;-44
2021/05/15 05:28:14;;;;;;;2.10;1.90;;;;;;;31.39;41.01;100627.44;5059796;28;70348;-41
2021/05/15 05:30:44;;;;;;;2.13;1.60;;;;;;;31.37;40.84;100634.16;5051957;28;66630;-40
2021/05/15 05:33:14;;;;;;;3.30;1.75;;;;;;;31.33;41.06;100651.91;5059419;28;70259;-40
2021/05/15 05:35:42;;;;;;;2.45;1.52;;;;;;;31.31;40.59;100670.28;5058433;28;65371;-40
2021/05/15 05:38:13;;;;;;;2.22;1.35;;;;;;;31.31;40.88;100675.69;5055870;28;69859;-45
2021/05/15 05:40:43;;;;;;;11.82;1.80;;;;;;;31.23;40.79;100673.28;5052724;28;66243;-43
2021/05/15 05:43:17;;;;;;;2.65;1.80;;;;;;;31.25;40.43;100673.91;5051395;28;69586;-42
2021/05/15 05:45:46;;;;;;;4.65;2.17;;;;;;;31.20;41.48;100657.50;5054010;28;66268;-41
2021/05/15 05:48:18;;;;;;;4.30;1.88;;;;;;;31.26;42.51;100689.09;5055639;28;69486;-41
2021/05/15 05:50:53;;;;;;;7.68;1.70;;;;;;;31.16;42.79;100676.91;5053805;28;66279;-42
2021/05/15 05:53:26;;;;;;;1.80;1.40;;;;;;;31.20;42.57;100690.00;5070082;27;70316;-43
2021/05/15 05:55:54;;;;;;;1.63;1.52;;;;;;;31.19;41.99;100699.19;5053204;28;66134;-43
2021/05/15 05:58:23;;;;;;;7.53;1.50;;;;;;;31.16;42.26;100701.31;5054087;28;69830;-40
2021/05/15 06:00:51;;;;;;;6.20;1.67;;;;;;;31.14;42.04;100692.56;5053628;28;66329;-41
2021/05/15 06:03:19;;;;;;;3.15;1.65;;;;;;;31.11;42.46;100692.19;5072232;27;69047;-40
2021/05/15 06:05:48;;;;;;;14.85;1.85;;;;;;;31.10;43.08;100669.69;5051125;28;65937;-44
2021/05/15 06:08:19;;;;;;;9.65;2.17;;;;;;;31.22;45.13;100663.50;5056964;28;70297;-40
2021/05/15 06:10:51;;;;;;;9.73;1.95;;;;;;;31.33;46.02;100647.31;5049699;28;65606;-42
2021/05/15 06:13:20;;;;;;;6.78;2.33;;;;;;;31.47;46.64;100631.72;5055737;28;69110;-42
2021/05/15 06:15:55;;;;;;;10.68;2.40;;;;;;;31.55;48.89;100609.72;5056099;28;66097;-41
2021/05/15 06:18:26;;;;;;;13.10;2.87;;;;;;;31.76;52.33;100612.94;5058580;28;69356;-42
2021/05/15 06:20:55;;;;;;;9.73;2.40;;;;;;;31.85;53.22;100616.97;5059379;28;66089;-43
2021/05/15 06:23:23;;;;;;;16.52;2.78;;;;;;;32.01;53.57;100610.91;5059499;28;69945;-43
2021/05/15 06:25:52;;;;;;;9.82;2.97;;;;;;;32.17;54.30;100609.34;5053663;28;66214;-42
2021/05/15 06:28:21;;;;;;;13.23;2.83;;;;;;;32.28;54.02;100605.00;5056404;28;69668;-42
2021/05/15 06:30:49;;;;;;;8.23;2.65;;;;;;;32.30;55.13;100592.03;5062708;28;65318;-43
2021/05/15 06:33:18;;;;;;;9.45;2.60;;;;;;;32.43;54.91;100608.06;5053935;28;69831;-42
2021/05/15 06:35:50;;;;;;;10.13;2.03;;;;;;;32.55;54.95;100605.38;5051100;28;65926;-42
2021/05/15 06:38:24;;;;;;;3.03;1.90;;;;;;;32.61;54.83;100590.81;5047636;28;69995;-41
2021/05/15 06:40:53;;;;;;;9.93;2.60;;;;;;;32.55;54.85;100561.09;5053062;28;66184;-41
2021/05/15 06:43:22;;;;;;;4.03;2.33;;;;;;;32.66;55.37;100574.66;5042754;28;69855;-42
2021/05/15 06:45:50;;;;;;;8.30;2.38;;;;;;;32.76;55.19;100551.47;5053407;28;65996;-42
2021/05/15 06:48:19;;;;;;;3.90;2.38;;;;;;;32.79;55.41;100532.81;5057501;28;69917;-42
2021/05/15 06:50:50;;;;;;;2.47;1.92;;;;;;;32.80;55.37;100525.47;5051511;28;66076;-41
2021/05/15 06:53:19;;;;;;;5.88;2.03;;;;;;;32.84;55.63;100527.44;5053264;28;70030;-42
2021/05/15 06:55:47;;;;;;;3.47;2.00;;;;;;;32.87;55.56;100528.88;5052507;28;65580;-41
2021/05/15 06:58:19;;;;;;;6.93;2.60;;;;;;;32.84;55.64;100527.44;5051309;28;70169;-42
2021/05/15 07:00:47;;;;;;;3.40;2.17;;;;;;;32.83;55.70;100520.38;5055651;28;65710;-43
2021/05/15 07:03:15;;;;;;;4.85;1.95;;;;;;;32.90;55.88;100531.94;5049720;28;69613;-41
2021/05/15 07:05:43;;;;;;;3.78;2.28;;;;;;;32.96;56.28;100534.72;5049041;28;65367;-42
2021/05/15 07:08:13;;;;;;;5.10;1.70;;;;;;;32.66;56.55;100478.78;5049678;28;69638;-42
2021/05/15 07:10:42;;;;;;;5.57;2.50;;;;;;;32.97;56.89;100520.09;5050319;28;66368;-41
2021/05/15 07:13:13;;;;;;;4.60;2.05;;;;;;;32.99;56.43;100535.09;5051222;28;70523;-42
2021/05/15 07:15:42;;;;;;;5.40;2.17;;;;;;;33.00;56.49;100525.06;5054145;28;66072;-42
2021/05/15 07:18:11;;;;;;;3.15;2.53;;;;;;;32.98;56.94;100522.56;5053341;28;70674;-42
2021/05/15 07:20:40;;;;;;;4.22;2.75;;;;;;;32.98;57.38;100528.00;5049241;28;65699;-42
2021/05/15 07:23:09;;;;;;;4.78;2.50;;;;;;;33.01;56.78;100529.44;5052939;28;70274;-41
2021/05/15 07:25:38;;;;;;;2.83;2.50;;;;;;;33.01;57.05;100513.13;5048335;28;65903;-41
2021/05/15 07:28:07;;;;;;;3.22;2.58;;;;;;;33.05;57.10;100511.59;5052223;28;69025;-41
2021/05/15 07:30:35;;;;;;;4.18;2.90;;;;;;;33.01;57.38;100516.66;5055375;28;66190;-41
2021/05/15 07:33:07;;;;;;;3.25;2.58;;;;;;;33.06;57.43;100524.91;5054569;28;70330;-41
2021/05/15 07:35:39;;;;;;;3.92;2.90;;;;;;;32.99;57.27;100517.94;5052294;28;66291;-41
2021/05/15 07:38:13;;;;;;;3.03;2.72;;;;;;;33.07;57.15;100531.16;5050478;28;69720;-40
2021/05/15 07:40:42;;;;;;;3.25;2.70;;;;;;;32.95;57.14;100525.75;5053999;28;65607;-41
2021/05/15 07:43:11;;;;;;;5.95;2.75;;;;;;;33.06;57.07;100546.66;5059014;28;69864;-43
2021/05/15 07:45:39;;;;;;;3.75;2.53;;;;;;;33.04;57.28;100553.41;5055645;28;65466;-42
2021/05/15 07:48:08;;;;;;;3.45;3.15;;;;;;;33.04;57.37;100559.69;5052886;28;69211;-43
2021/05/15 07:50:36;;;;;;;3.17;2.63;;;;;;;33.05;57.56;100557.78;5054838;28;66121;-42
2021/05/15 07:53:05;;;;;;;2.83;2.60;;;;;;;33.05;57.32;100572.19;5056383;28;69289;-42
2021/05/15 07:55:34;;;;;;;2.35;2.15;;;;;;;33.07;57.66;100563.78;5071523;28;65403;-41
2021/05/15 07:58:03;;;;;;;3.00;2.55;;;;;;;33.06;57.45;100564.84;5055944;28;70082;-41
2021/05/15 08:00:31;;;;;;;4.65;2.53;;;;;;;33.09;57.73;100564.38;5060156;28;66095;-42
2021/05/15 08:03:00;;;;;;;11.10;2.97;;;;;;;33.09;57.89;100567.91;5057059;28;69017;-42
2021/05/15 08:05:32;;;;;;;13.57;3.22;;;;;;;33.08;57.61;100557.28;5055568;28;64930;-41
2021/05/15 08:08:02;;;;;;;36.15;4.47;;;;;;;33.06;57.72;100557.53;5059399;28;69872;-42
2021/05/15 08:10:31;;;;;;;39.97;4.40;;;;;;;33.03;57.52;100562.63;5062776;28;65975;-41
2021/05/15 08:13:07;;;;;;;46.63;5.28;;;;;;;32.98;57.67;100551.63;5056249;28;70405;-43
2021/05/15 08:15:36;;;;;;;56.05;5.25;;;;;;;32.78;57.72;100523.00;5057116;28;66022;-41
2021/05/15 08:18:05;;;;;;;37.92;5.05;;;;;;;33.07;58.17;100563.78;5061447;28;68817;-41
2021/05/15 08:20:36;;;;;;;47.20;5.22;;;;;;;33.05;57.76;100566.75;5056921;27;66970;-41
2021/05/15 08:23:07;;;;;;;40.53;5.03;;;;;;;32.93;58.11;100542.31;5051170;28;70260;-42
2021/05/15 08:25:36;;;;;;;35.13;4.60;;;;;;;33.06;58.09;100545.84;5060287;28;67028;-42
2021/05/15 08:28:11;;;;;;;20.73;4.47;;;;;;;33.05;58.30;100538.75;5057795;28;69799;-42
2021/05/15 08:30:41;;;;;;;31.17;4.88;;;;;;;33.06;58.35;100529.53;5056612;28;65414;-40
2021/05/15 08:33:10;;;;;;;18.48;3.97;;;;;;;33.04;58.39;100526.22;5060332;28;69808;-44
2021/05/15 08:35:39;;;;;;;25.20;4.15;;;;;;;33.04;58.26;100527.06;5059489;28;66190;-42
2021/05/15 08:38:08;;;;;;;16.60;4.75;;;;;;;33.01;58.50;100515.84;5059638;28;69378;-41
2021/05/15 08:40:36;;;;;;;16.08;4.90;;;;;;;33.04;58.87;100520.78;5059086;28;66140;-41
2021/05/15 08:43:10;;;;;;;18.40;4.82;;;;;;;33.04;58.48;100512.63;5053826;28;70119;-42
2021/05/15 08:45:38;;;;;;;11.60;4.35;;;;;;;32.84;58.23;100473.13;5062270;28;65259;-42
2021/05/15 08:48:12;;;;;;;15.63;4.30;;;;;;;32.96;58.49;100496.69;5056709;28;70027;-42
2021/05/15 08:50:43;;;;;;;7.90;4.38;;;;;;;32.99;58.69;100493.47;5049386;28;65385;-42
2021/05/15 08:53:12;;;;;;;14.30;4.55;;;;;;;32.93;58.33;100477.13;5048726;28;70076;-42
2021/05/15 08:55:41;;;;;;;9.65;4.50;;;;;;;32.84;59.05;100459.53;5056302;28;65409;-42
2021/05/15 08:58:10;;;;;;;18.77;5.22;;;;;;;32.96;59.38;100474.97;5059119;28;70299;-42
2021/05/15 09:00:43;;;;;;;16.02;5.28;;;;;;;32.96;58.83;100474.97;5061535;28;65805;-42
2021/05/15 09:03:14;;;;;;;16.33;5.55;;;;;;;32.94;59.23;100470.59;5058922;28;70251;-42
2021/05/15 09:05:50;;;;;;;9.23;5.45;;;;;;;32.68;59.13;100425.00;5060110;28;66108;-42
2021/05/15 09:08:23;;;;;;;18.60;5.55;;;;;;;33.00;59.46;100476.97;5058617;27;70428;-42
2021/05/15 09:10:55;;;;;;;6.13;4.65;;;;;;;32.98;59.39;100478.25;5057048;28;66279;-42
2021/05/15 09:13:35;;;;;;;15.90;5.65;;;;;;;32.93;59.29;100458.09;5058198;28;70003;-41
2021/05/15 09:16:07;;;;;;;7.10;5.50;;;;;;;32.98;59.39;100465.50;5057977;28;66163;-41
2021/05/15 09:18:40;;;;;;;7.65;5.25;;;;;;;33.01;59.46;100464.22;5056796;28;70103;-42
2021/05/15 09:21:19;;;;;;;16.98;5.40;;;;;;;32.97;59.77;100457.59;5058625;28;65997;-43
2021/05/15 09:23:51;;;;;;;11.18;6.45;;;;;;;32.96;59.66;100456.78;5057812;28;70465;-41
2021/05/15 09:26:26;;;;;;;59.78;41.85;;;;;;;32.97;60.19;100454.88;5059818;28;66059;-43
2021/05/15 09:28:59;;;;;;;70.25;51.88;;;;;;;32.84;61.14;100459.53;5053449;28;69221;-42
2021/05/15 09:31:42;;;;;;;62.90;46.60;;;;;;;32.79;61.49;100464.91;5061010;28;66129;-41
2021/05/15 09:34:13;;;;;;;57.15;40.47;;;;;;;32.71;61.72;100465.28;5060488;28;69625;-42
2021/05/15 09:36:47;;;;;;;36.67;30.80;;;;;;;32.70;61.83;100455.47;5065474;28;66270;-41
2021/05/15 09:39:22;;;;;;;45.60;27.90;;;;;;;32.67;61.90;100458.69;5061385;28;69778;-44
2021/05/15 09:41:58;;;;;;;31.40;19.25;;;;;;;32.29;62.70;100413.97;5057168;28;66341;-43
2021/05/15 09:44:40;;;;;;;16.40;12.52;;;;;;;32.58;62.17;100468.28;5062488;27;70558;-41
2021/05/15 09:47:11;;;;;;;14.82;9.93;;;;;;;32.58;62.40;100460.16;5057534;28;66256;-42
2021/05/15 09:49:43;;;;;;;13.30;7.93;;;;;;;32.59;62.89;100462.59;5059698;28;69094;-42
2021/05/15 09:52:13;;;;;;;16.10;7.10;;;;;;;32.59;62.16;100461.78;5058037;28;67890;-42
2021/05/15 09:54:44;;;;;;;20.15;8.02;;;;;;;32.58;62.51;100473.72;5053323;28;69850;-42
2021/05/15 09:57:23;;;;;;;10.45;7.72;;;;;;;32.45;62.74;100467.47;5060666;28;65096;-42
2021/05/15 09:59:54;;;;;;;10.30;7.53;;;;;;;32.49;62.90;100484.97;5057735;28;70097;-42
2021/05/15 10:02:26;;;;;;;12.07;7.13;;;;;;;32.54;62.80;100477.97;5057901;28;66895;-42
2021/05/15 10:05:10;;;;;;;12.40;6.82;;;;;;;32.51;62.81;100483.88;5057395;28;69649;-43
2021/05/15 10:08:04;;;;;;;17.48;6.45;;;;;;;32.48;62.47;100475.19;5063596;28;66210;-42
2021/05/15 10:10:37;;;;;;;13.57;6.38;;;;;;;32.41;62.46;100484.50;5060048;28;69141;-43
2021/05/15 10:13:07;;;;;;;9.60;6.13;;;;;;;32.33;62.33;100480.25;5052921;28;65259;-42
2021/05/15 10:15:40;;;;;;;5.60;5.07;;;;;;;32.24;62.45;100478.97;5058218;28;69684;-42
2021/05/15 10:18:12;;;;;;;;;;;;;;;32.05;62.86;100481.84;5058014;28;66708;-41
2021/05/15 10:20:44;;;;;;;16.10;4.78;;;;;;;31.85;62.12;100435.25;5056790;28;69819;-42
2021/05/15 10:23:20;;;;;;;13.90;6.00;;;;;;;32.11;62.47;100485.47;5053452;28;66410;-43
2021/05/15 10:26:03;;;;;;;12.88;6.28;;;;;;;31.96;63.05;100488.69;5057384;28;70016;-42
2021/05/15 10:28:36;;;;;;;8.70;5.97;;;;;;;31.95;62.60;100497.88;5057896;28;66134;-42
2021/05/15 10:31:14;;;;;;;10.52;5.40;;;;;;;32.03;62.46;100488.56;5056685;28;70169;-41
2021/05/15 10:33:47;;;;;;;15.35;6.00;;;;;;;32.01;62.86;100490.69;5055485;28;65256;-42
2021/05/15 10:36:21;;;;;;;17.50;6.88;;;;;;;31.62;62.50;100419.81;5056781;28;69911;-43
2021/05/15 10:38:53;;;;;;;11.98;6.10;;;;;;;32.02;63.01;100489.63;5058545;28;66014;-42
2021/05/15 10:41:26;;;;;;;9.40;7.10;;;;;;;32.04;62.53;100484.81;5056824;28;69880;-44
2021/05/15 10:43:58;;;;;;;13.07;6.97;;;;;;;32.00;62.66;100475.47;5051243;28;65307;-44
2021/05/15 10:46:31;;;;;;;14.75;7.07;;;;;;;32.10;62.27;100488.44;5059047;28;70032;-42
2021/05/15 10:49:01;;;;;;;13.40;5.80;;;;;;;32.05;62.45;100476.41;5046521;28;65835;-41
2021/05/15 10:51:37;;;;;;;11.45;5.38;;;;;;;31.91;62.84;100464.16;5059473;28;68990;-43
2021/05/15 10:54:10;;;;;;;14.60;5.80;;;;;;;31.75;63.09;100437.72;5060289;28;66027;-41
2021/05/15 10:56:49;;;;;;;19.05;6.68;;;;;;;32.02;63.47;100471.47;5053961;27;70351;-41
2021/05/15 10:59:22;;;;;;;8.20;6.57;;;;;;;31.90;63.54;100461.63;5057432;28;65432;-41
2021/05/15 11:01:59;;;;;;;8.40;6.57;;;;;;;31.95;63.66;100470.75;5054996;28;69785;-41
2021/05/15 11:04:55;;;;;;;6.63;5.78;;;;;;;31.31;63.34;100372.16;5056815;28;66422;-41
2021/05/15 11:07:38;;;;;;;12.02;6.20;;;;;;;31.91;63.97;100487.72;5056241;28;71039;-41
2021/05/15 11:10:17;;;;;;;10.90;8.25;;;;;;;31.95;63.94;100481.59;5056531;28;66195;-42
2021/05/15 11:12:52;;;;;;;12.55;9.02;;;;;;;31.94;63.38;100493.53;5054563;28;70414;-41
2021/05/15 11:15:28;;;;;;;12.30;8.40;;;;;;;31.93;63.99;100491.88;5056419;28;65782;-41
2021/05/15 11:18:05;;;;;;;11.90;8.75;;;;;;;31.92;64.30;100492.09;5058166;28;70153;-42
2021/05/15 11:20:46;;;;;;;10.15;8.50;;;;;;;31.90;64.21;100499.63;5055794;28;65935;-42
2021/05/15 11:23:24;;;;;;;14.40;7.25;;;;;;;31.93;64.19;100505.44;5055144;28;69783;-42
2021/05/15 11:26:04;;;;;;;13.40;6.27;;;;;;;31.21;63.72;100393.63;5052351;28;66302;-41
2021/05/15 11:28:34;;;;;;;11.20;7.13;;;;;;;31.93;64.37;100510.03;5056141;28;70235;-43
2021/05/15 11:31:09;;;;;;;16.05;8.05;;;;;;;31.85;63.98;100522.03;5052431;28;65575;-42
2021/05/15 11:33:40;;;;;;;11.90;7.63;;;;;;;31.93;64.08;100546.13;5041208;28;69838;-43
2021/05/15 11:36:14;;;;;;;13.02;8.07;;;;;;;31.91;64.63;100542.81;5054533;28;66581;-41
2021/05/15 11:38:47;;;;;;;12.00;8.63;;;;;;;31.50;64.70;100490.28;5074794;27;69746;-41
2021/05/15 11:41:19;;;;;;;8.82;7.93;;;;;;;31.89;64.76;100549.50;5062871;28;65453;-41
2021/05/15 11:43:51;;;;;;;9.55;7.22;;;;;;;31.85;64.52;100557.31;5058449;28;69941;-41
2021/05/15 11:46:28;;;;;;;14.75;6.60;;;;;;;31.92;64.37;100557.22;5060894;28;66297;-41